Stadt:
 IT 
 EN 
 FR 
 DE 
 ES 

Aktuelle Messwerte

Datameteo.com Informazioni Meteo attuali
Milano / Linate, Italy
Alba: 4:42 AM UTC1
Tramonto: 7:55 PM UTC1
 Lat: 45.42N, Lon: 9.27E
ICAO Used: LIML
Realzeit wetter, Realtime weather, Metèo en temps reel, Dato en tiempo real, Akt, Upd,Mis a j, Act
Update: 0820 AM UTC+1 SAB MAG 25 2024
Parz Nuvoloso
Temp: 18°C
Feuchte/Humidity/Humiditè/Humedad': 77%
Wind-Wind-Vent-Viento: NNE 04 KTS /
Pressione-Pressure-Pression-Presìon: 1017 hPa
Tautemperatur-Dew Point-P. de Rosèe-Temp rocìo: 14°C
Wärmindex-Feels like-Index de Chaleur-Indice Calor: 18°C
Sicht-Visibility-Visibilitè-Visibilidad: N/D
Wind Chill-Refroidissement eolien-Indice Calor Viento (Wind Chill): 18°C
Ho"chs,High,Max 14 hr: 17°C
Mindes,Low,Min 24 hr: 13°C


ORIGINAL METAR
LIML 250820Z 03004KT 340V080 9999 SCT030 18/14 Q1017 NOSIG




Elaborazione dati by Datameteo.com - Lrc Servizi srl Copyright ©, All rights reserved.
web version
©2010 Datameteo.com
weather mobile,mobile weather,meteo mobile,mobile meteo,meteo sul telefonino datameteo.com